Time;durP1;ratioP1;P1;durP2;ratioP2;P2;SDS_P1;SDS_P2;PMS_P1;PMS_P2;Temp;Humidity;BMP_temperature;BMP_pressure;BME280_temperature;BME280_humidity;BME280_pressure;Samples;Min_cycle;Max_cycle;Signal;HPM_P1;HPM_P2
2023/05/09 00:01:32;;;;;;;;;10.00;10.00;;;;;21.94;100.00;101361.03;5102355;27;45360;-76
2023/05/09 00:04:01;;;;;;;;;10.67;10.67;;;;;22.00;100.00;101370.09;5101993;27;45393;-76
2023/05/09 00:06:27;;;;;;;;;8.67;8.33;;;;;21.93;100.00;101364.81;5083156;27;47327;-76
2023/05/09 00:08:55;;;;;;;;;10.00;9.00;;;;;21.91;100.00;101360.69;5101851;27;45267;-76
2023/05/09 00:11:21;;;;;;;;;7.00;7.00;;;;;21.93;100.00;101364.81;5102113;27;45412;-76
2023/05/09 00:13:47;;;;;;;;;5.00;5.00;;;;;21.90;100.00;101364.44;5083287;27;45243;-75
2023/05/09 00:16:14;;;;;;;;;9.00;8.00;;;;;21.92;100.00;101357.75;5101686;27;45345;-75
2023/05/09 00:18:41;;;;;;;;;10.33;7.67;;;;;21.94;100.00;101352.91;5101816;27;45391;-76
2023/05/09 00:21:06;;;;;;;;;10.00;10.00;;;;;21.90;100.00;101346.34;5083224;27;45376;-76
2023/05/09 00:23:32;;;;;;;;;8.33;8.33;;;;;21.92;100.00;101346.09;5101244;27;45670;-75
2023/05/09 00:25:58;;;;;;;;;7.33;7.33;;;;;21.90;100.00;101342.81;5082247;27;51797;-76
2023/05/09 00:28:24;;;;;;;;;7.67;7.67;;;;;21.90;100.00;101337.38;5081868;27;45586;-76
2023/05/09 00:30:49;;;;;;;;;9.00;9.00;;;;;21.98;100.00;101334.34;5101613;27;45366;-76
2023/05/09 00:33:15;;;;;;;;;8.00;7.00;;;;;22.03;100.00;101330.94;5082604;27;45596;-76
2023/05/09 00:35:40;;;;;;;;;6.00;6.00;;;;;22.03;100.00;101329.03;5101345;27;47910;-76
2023/05/09 00:38:05;;;;;;;;;8.00;7.00;;;;;21.98;100.00;101331.63;5100704;27;55402;-76
2023/05/09 00:40:30;;;;;;;;;7.67;7.00;;;;;21.99;100.00;101319.75;5101009;27;52927;-76
2023/05/09 00:42:58;;;;;;;;;7.33;7.33;;;;;21.97;100.00;101315.63;5101298;27;49355;-76
2023/05/09 00:45:23;;;;;;;;;10.00;10.00;;;;;21.93;100.00;101312.56;5082707;27;48488;-76
2023/05/09 00:47:49;;;;;;;;;7.00;7.00;;;;;21.95;100.00;101313.16;5083009;27;45237;-75
2023/05/09 00:50:15;;;;;;;;;7.00;6.33;;;;;21.96;100.00;101309.41;5101321;27;45441;-76
2023/05/09 00:52:40;;;;;;;;;9.33;8.67;;;;;21.96;100.00;101303.97;5101119;27;45477;-75
2023/05/09 00:55:07;;;;;;;;;8.00;7.00;;;;;21.94;100.00;101306.91;5101226;27;46290;-76
2023/05/09 00:57:33;;;;;;;;;10.33;8.00;;;;;21.92;100.00;101300.94;5101135;27;45260;-76
2023/05/09 00:59:59;;;;;;;;;8.00;7.00;;;;;21.93;100.00;101301.75;5101323;27;45434;-76
2023/05/09 01:02:25;;;;;;;;;6.00;6.00;;;;;21.90;100.00;101285.97;5092651;27;45150;-76
2023/05/09 01:04:51;;;;;;;;;8.00;8.00;;;;;21.96;100.00;101295.88;5082603;27;47387;-76
2023/05/09 01:07:37;;;;;;;;;7.67;7.67;;;;;21.94;100.00;101282.56;5100573;27;45282;-75
2023/05/09 01:10:33;;;;;;;;;7.00;7.00;;;;;21.94;100.00;101276.34;5101316;27;45266;-76
2023/05/09 01:13:40;;;;;;;;;7.67;7.67;;;;;21.92;100.00;101279.28;5100985;27;45469;-76
2023/05/09 01:16:16;;;;;;;;;8.00;8.00;;;;;21.87;100.00;101273.75;5017782;28;45563;-76
2023/05/09 01:18:50;;;;;;;;;9.33;7.00;;;;;21.87;100.00;101267.53;5091717;27;45304;-76
2023/05/09 01:21:20;;;;;;;;;7.67;7.67;;;;;21.89;100.00;101266.25;5082145;27;45307;-75
2023/05/09 01:24:01;;;;;;;;;11.00;10.67;;;;;21.86;100.00;101268.59;5100686;27;45488;-75
2023/05/09 01:27:08;;;;;;;;;6.00;5.00;;;;;21.86;100.00;101264.00;5082213;27;47042;-75
2023/05/09 01:29:43;;;;;;;;;7.33;7.33;;;;;21.77;100.00;101257.31;5013792;28;45408;-76
2023/05/09 01:32:14;;;;;;;;;8.00;7.33;;;;;21.84;100.00;101257.19;5037473;28;45400;-76
2023/05/09 01:34:42;;;;;;;;;9.67;9.67;;;;;21.84;100.00;101258.00;5066852;27;45425;-76
2023/05/09 01:37:09;;;;;;;;;9.00;8.00;;;;;21.79;100.00;101245.19;5100036;27;45425;-76
2023/05/09 01:39:38;;;;;;;;;5.00;5.00;;;;;21.75;100.00;101240.47;5078544;28;45961;-76
2023/05/09 01:42:07;;;;;;;;;9.33;9.33;;;;;21.72;100.00;101232.81;5079493;27;45275;-76
2023/05/09 01:44:37;;;;;;;;;6.67;6.00;;;;;21.79;100.00;101239.78;5099567;27;45479;-75
2023/05/09 01:47:06;;;;;;;;;7.67;7.67;;;;;21.70;100.00;101227.66;5078925;27;46308;-74
2023/05/09 01:49:34;;;;;;;;;8.00;8.00;;;;;21.77;100.00;101241.09;5100443;27;45321;-75
2023/05/09 01:52:04;;;;;;;;;8.33;8.00;;;;;21.73;100.00;101227.16;5100235;27;45326;-75
2023/05/09 01:54:31;;;;;;;;;9.33;9.33;;;;;21.70;100.00;101224.97;5078314;28;46060;-75
2023/05/09 01:56:58;;;;;;;;;6.00;6.00;;;;;21.73;100.00;101232.56;5078401;28;48334;-75
2023/05/09 01:59:26;;;;;;;;;8.67;8.67;;;;;21.74;100.00;101236.13;5099241;27;45366;-74
2023/05/09 02:01:53;;;;;;;;;10.00;10.00;;;;;21.68;100.00;101232.47;5100391;27;45488;-75
2023/05/09 02:04:20;;;;;;;;;10.00;8.33;;;;;21.67;100.00;101237.06;5080983;27;46236;-75
2023/05/09 02:06:51;;;;;;;;;8.00;8.00;;;;;21.69;100.00;101247.63;5099793;27;45314;-75
2023/05/09 02:09:19;;;;;;;;;6.33;6.33;;;;;21.65;100.00;101238.38;5080712;27;45339;-75
2023/05/09 02:11:44;;;;;;;;;7.67;7.67;;;;;21.65;100.00;101243.78;5100325;27;45158;-75
2023/05/09 02:14:09;;;;;;;;;7.00;7.00;;;;;21.61;100.00;101235.28;5100231;27;45533;-75
2023/05/09 02:16:35;;;;;;;;;9.67;8.00;;;;;21.63;100.00;101235.06;5078067;28;46909;-75
2023/05/09 02:19:01;;;;;;;;;8.67;8.33;;;;;21.55;100.00;101228.16;5078599;27;45268;-75
2023/05/09 02:21:26;;;;;;;;;9.00;9.00;;;;;21.57;100.00;101232.25;5077966;28;45343;-75
2023/05/09 02:23:52;;;;;;;;;7.33;7.33;;;;;21.53;100.00;101230.25;5095407;27;45394;-75
2023/05/09 02:26:18;;;;;;;;;7.00;7.00;;;;;21.48;100.00;101232.84;5099898;27;45419;-75
2023/05/09 02:28:45;;;;;;;;;6.00;6.00;;;;;21.42;100.00;101210.28;5077655;28;45431;-75
2023/05/09 02:31:12;;;;;;;;;10.00;8.33;;;;;21.44;100.00;101227.94;5098018;27;45274;-75
2023/05/09 02:33:40;;;;;;;;;7.33;7.33;;;;;21.43;100.00;101228.16;5081196;27;46205;-75
2023/05/09 02:36:07;;;;;;;;;8.00;6.67;;;;;21.42;100.00;101230.03;5099459;27;46471;-76
2023/05/09 02:38:34;;;;;;;;;8.00;8.00;;;;;21.41;100.00;101227.56;5099614;27;45235;-75
2023/05/09 02:41:00;;;;;;;;;6.67;6.67;;;;;21.37;100.00;101213.69;5099854;27;45227;-75
2023/05/09 02:43:25;;;;;;;;;8.33;7.67;;;;;21.38;100.00;101206.41;5081280;27;46031;-75
2023/05/09 02:45:50;;;;;;;;;6.33;6.33;;;;;21.41;100.00;101211.34;5080799;27;55057;-75
2023/05/09 02:48:16;;;;;;;;;11.33;8.67;;;;;21.38;100.00;101207.25;5099696;27;45349;-75
2023/05/09 02:50:44;;;;;;;;;8.00;8.00;;;;;21.41;100.00;101208.63;5099704;27;45199;-75
2023/05/09 02:53:10;;;;;;;;;6.00;6.00;;;;;21.41;100.00;101208.63;5081049;27;46390;-75
2023/05/09 02:55:35;;;;;;;;;7.33;7.33;;;;;21.39;100.00;101197.22;5101900;27;46367;-75
2023/05/09 02:58:01;;;;;;;;;7.33;7.00;;;;;21.40;100.00;101210.50;5103148;27;45345;-75
2023/05/09 03:00:26;;;;;;;;;10.67;9.00;;;;;21.39;100.00;101205.34;5103090;27;47273;-75
2023/05/09 03:02:52;;;;;;;;;7.33;7.33;;;;;21.38;100.00;101195.59;5084595;27;46073;-75
2023/05/09 03:05:17;;;;;;;;;7.00;7.00;;;;;21.40;100.00;101202.41;5084371;27;47252;-75
2023/05/09 03:07:43;;;;;;;;;7.33;7.33;;;;;21.41;100.00;101200.53;5084270;27;45377;-75
2023/05/09 03:10:11;;;;;;;;;8.33;8.00;;;;;21.41;100.00;101190.56;5103049;27;45427;-75
2023/05/09 03:12:37;;;;;;;;;8.33;8.33;;;;;21.42;100.00;101196.75;5102851;27;45485;-75
2023/05/09 03:15:03;;;;;;;;;9.33;8.33;;;;;21.44;100.00;101194.66;5102610;27;45770;-75
2023/05/09 03:17:29;;;;;;;;;8.67;8.67;;;;;21.44;100.00;101178.44;5102849;27;45298;-75
2023/05/09 03:19:54;;;;;;;;;7.00;7.00;;;;;21.49;100.00;101183.13;5084540;27;45246;-75
2023/05/09 03:22:19;;;;;;;;;7.67;7.67;;;;;21.45;100.00;101180.06;5083742;27;50991;-75
2023/05/09 03:24:45;;;;;;;;;10.33;9.00;;;;;21.41;100.00;101174.34;5102305;27;50876;-75
2023/05/09 03:27:10;;;;;;;;;6.00;6.00;;;;;21.45;100.00;101180.06;5102676;27;45293;-75
2023/05/09 03:29:35;;;;;;;;;8.00;7.00;;;;;21.44;100.00;101181.13;5080291;28;56473;-75
2023/05/09 03:32:01;;;;;;;;;10.00;10.00;;;;;21.40;100.00;101166.47;5099360;27;45325;-74
2023/05/09 03:34:26;;;;;;;;;7.67;6.67;;;;;21.44;100.00;101173.03;5102226;27;45245;-75
2023/05/09 03:36:51;;;;;;;;;7.67;7.00;;;;;21.43;100.00;101172.19;5102291;27;45310;-75
2023/05/09 03:39:17;;;;;;;;;8.00;7.00;;;;;21.44;100.00;101175.72;5102394;27;45631;-75
2023/05/09 03:41:43;;;;;;;;;10.67;10.33;;;;;21.40;100.00;101167.25;5080218;28;55745;-75
2023/05/09 03:44:09;;;;;;;;;9.33;9.33;;;;;21.41;100.00;101162.69;5100002;27;46782;-75
2023/05/09 03:46:34;;;;;;;;;6.67;6.67;;;;;21.42;100.00;101167.84;5102355;27;45324;-75
2023/05/09 03:49:00;;;;;;;;;5.00;5.00;;;;;21.40;100.00;101163.75;5102187;27;47450;-74
2023/05/09 03:51:25;;;;;;;;;6.00;6.00;;;;;21.33;100.00;101171.16;5080111;28;45851;-75
2023/05/09 03:53:50;;;;;;;;;8.00;8.00;;;;;21.40;100.00;101159.16;5097541;27;46048;-74
2023/05/09 03:56:16;;;;;;;;;8.33;8.00;;;;;21.39;100.00;101164.78;5102072;27;45288;-74
2023/05/09 03:58:41;;;;;;;;;10.00;9.00;;;;;21.43;100.00;101163.28;5100970;27;45291;-75
2023/05/09 04:01:06;;;;;;;;;9.33;8.00;;;;;21.39;100.00;101156.69;5101649;27;54690;-75
2023/05/09 04:03:32;;;;;;;;;10.00;8.00;;;;;21.37;100.00;101156.91;5100461;27;48219;-75
2023/05/09 04:05:57;;;;;;;;;7.00;7.00;;;;;21.39;100.00;101156.69;5101300;27;45303;-74
2023/05/09 04:08:23;;;;;;;;;8.33;8.33;;;;;21.35;100.00;101148.25;5083530;27;45181;-75
2023/05/09 04:10:49;;;;;;;;;11.67;11.67;;;;;21.33;100.00;101144.13;5101953;27;45573;-76
2023/05/09 04:13:15;;;;;;;;;8.67;8.67;;;;;21.35;100.00;101147.41;5101896;27;45970;-75
2023/05/09 04:15:41;;;;;;;;;6.67;6.00;;;;;21.33;100.00;101144.94;5101778;27;45372;-75
2023/05/09 04:18:06;;;;;;;;;10.33;10.00;;;;;21.30;100.00;101154.34;5101868;27;45254;-75
2023/05/09 04:20:32;;;;;;;;;7.33;6.33;;;;;21.29;100.00;101150.00;5083286;27;45901;-75
2023/05/09 04:22:57;;;;;;;;;9.67;9.67;;;;;21.25;100.00;101143.41;5101529;27;45376;-75
2023/05/09 04:25:23;;;;;;;;;8.67;7.33;;;;;21.31;100.00;101160.59;5083271;27;45348;-75
2023/05/09 04:27:48;;;;;;;;;9.33;9.00;;;;;21.21;100.00;101139.56;5101688;27;45369;-75
2023/05/09 04:30:14;;;;;;;;;6.33;6.00;;;;;21.19;100.00;101138.97;5099444;27;58420;-75
2023/05/09 04:32:44;;;;;;;;;7.67;7.67;;;;;21.20;100.00;101137.91;5101658;27;45365;-75
2023/05/09 04:35:10;;;;;;;;;11.00;11.00;;;;;21.19;100.00;101138.97;5101159;27;45221;-75
2023/05/09 04:37:35;;;;;;;;;9.00;8.00;;;;;21.18;100.00;101137.31;5101449;27;45380;-76
2023/05/09 04:40:04;;;;;;;;;8.33;8.33;;;;;21.06;100.00;101132.75;5100668;27;54707;-75
2023/05/09 04:42:32;;;;;;;;;5.33;5.33;;;;;21.04;100.00;101142.16;5100855;27;46079;-74
2023/05/09 04:45:01;;;;;;;;;7.00;7.00;;;;;20.94;100.00;101135.44;5082971;27;45362;-75
2023/05/09 04:47:27;;;;;;;;;4.00;4.00;;;;;20.95;100.00;101136.25;5101056;27;45419;-76
2023/05/09 04:49:52;;;;;;;;;7.67;6.67;;;;;20.92;100.00;101136.75;5100891;27;52433;-75
2023/05/09 04:52:17;;;;;;;;;9.00;7.00;;;;;20.86;100.00;101134.94;5082476;27;47086;-75
2023/05/09 04:54:43;;;;;;;;;3.33;3.33;;;;;20.75;100.00;101123.91;5100708;27;58260;-75
2023/05/09 04:57:08;;;;;;;;;4.33;4.00;;;;;20.77;100.00;101129.88;5082962;27;45394;-75
2023/05/09 04:59:34;;;;;;;;;5.67;5.67;;;;;20.74;100.00;101130.34;5098722;27;45532;-75
2023/05/09 05:01:59;;;;;;;;;5.00;4.67;;;;;20.73;100.00;101131.41;5091426;27;45916;-75
2023/05/09 05:04:25;;;;;;;;;7.33;5.33;;;;;20.75;100.00;101136.56;5070867;28;45280;-75
2023/05/09 05:06:50;;;;;;;;;5.00;4.00;;;;;20.68;100.00;101134.81;5084169;27;45302;-75
2023/05/09 05:09:15;;;;;;;;;6.67;6.67;;;;;20.61;100.00;101134.09;5081399;27;46031;-75
2023/05/09 05:11:41;;;;;;;;;5.33;5.33;;;;;20.59;100.00;101125.38;5100816;27;46093;-76
2023/05/09 05:14:06;;;;;;;;;2.00;2.00;;;;;20.46;100.00;101120.19;5082550;27;45346;-75
2023/05/09 05:16:31;;;;;;;;;1.00;1.00;;;;;20.34;100.00;101123.72;5101069;27;45272;-76
2023/05/09 05:18:57;;;;;;;;;2.00;2.00;;;;;20.29;100.00;101129.78;5099353;27;45249;-73
2023/05/09 05:21:22;;;;;;;;;0.33;0.00;;;;;20.17;100.00;101140.56;5082028;27;52288;-75
2023/05/09 05:23:48;;;;;;;;;0.33;0.33;;;;;20.08;100.00;101125.72;5081900;27;57637;-77
2023/05/09 05:26:13;;;;;;;;;1.00;1.00;;;;;19.99;100.00;101116.31;5100874;27;45437;-75
2023/05/09 05:28:38;;;;;;;;;1.00;1.00;;;;;19.94;100.00;101111.59;5100837;27;46496;-76
2023/05/09 05:31:03;;;;;;;;;1.00;1.00;;;;;19.87;100.00;101113.56;5100381;27;51457;-76
2023/05/09 05:33:29;;;;;;;;;1.00;0.00;;;;;19.84;100.00;101111.31;5082387;27;45881;-74
2023/05/09 05:35:54;;;;;;;;;1.33;1.00;;;;;19.88;100.00;101121.41;5081962;27;46553;-74
2023/05/09 05:38:20;;;;;;;;;2.00;2.00;;;;;19.83;100.00;101112.34;5100283;27;45420;-75
2023/05/09 05:40:45;;;;;;;;;0.67;0.67;;;;;19.81;100.00;101110.69;5100341;27;46028;-75
2023/05/09 05:43:10;;;;;;;;;1.00;1.00;;;;;19.79;100.00;101112.78;5082107;27;45363;-76
2023/05/09 05:45:36;;;;;;;;;0.00;0.00;;;;;19.80;100.00;101109.06;5082249;27;45408;-77
2023/05/09 05:48:02;;;;;;;;;1.00;1.00;;;;;19.74;100.00;101107.28;5100335;27;45340;-76
2023/05/09 05:50:27;;;;;;;;;1.00;1.00;;;;;19.70;100.00;101105.25;5081681;27;47986;-77
2023/05/09 05:52:53;;;;;;;;;2.33;2.00;;;;;19.72;100.00;101112.06;5080069;27;45865;-76
2023/05/09 05:55:18;;;;;;;;;1.00;1.00;;;;;19.67;100.00;101106.53;5100193;27;45576;-77
2023/05/09 05:57:44;;;;;;;;;1.00;0.00;;;;;19.67;100.00;101111.94;5082100;27;47227;-75
2023/05/09 06:00:10;;;;;;;;;0.00;0.00;;;;;19.64;100.00;101113.19;5093927;27;45389;-74
2023/05/09 06:02:35;;;;;;;;;1.00;1.00;;;;;19.56;100.00;101100.03;5061697;28;45412;-75
2023/05/09 06:05:02;;;;;;;;;0.00;0.00;;;;;19.50;100.00;101101.75;5080051;28;45334;-74
2023/05/09 06:07:28;;;;;;;;;0.00;0.00;;;;;19.45;100.00;101111.56;5061728;27;46186;-74
2023/05/09 06:09:53;;;;;;;;;0.00;0.00;;;;;19.37;100.00;101094.66;5098560;27;47684;-75
2023/05/09 06:12:18;;;;;;;;;0.00;0.00;;;;;19.34;100.00;101097.81;5099777;27;57052;-74
2023/05/09 06:14:44;;;;;;;;;0.33;0.33;;;;;19.25;100.00;101089.16;5081832;27;45274;-75
2023/05/09 06:17:09;;;;;;;;;0.00;0.00;;;;;19.29;100.00;101097.63;5081752;27;46118;-74
2023/05/09 06:19:34;;;;;;;;;0.67;0.67;;;;;19.23;100.00;101102.06;5100072;27;46291;-74
2023/05/09 06:22:00;;;;;;;;;0.00;0.00;;;;;19.14;100.00;101085.38;5099786;27;45359;-74
2023/05/09 06:24:25;;;;;;;;;0.67;0.00;;;;;19.18;100.00;101085.72;5098701;27;45393;-74
2023/05/09 06:26:51;;;;;;;;;0.00;0.00;;;;;19.08;100.00;101069.25;5100067;27;45640;-75
2023/05/09 06:29:16;;;;;;;;;2.00;1.00;;;;;19.10;100.00;101078.78;5099474;27;45463;-74
2023/05/09 06:31:41;;;;;;;;;1.00;1.00;;;;;19.01;100.00;101067.41;5081936;27;45407;-73
2023/05/09 06:34:07;;;;;;;;;3.67;3.67;;;;;19.03;100.00;101070.72;5103496;27;45377;-75
2023/05/09 06:36:33;;;;;;;;;3.00;2.67;;;;;19.08;100.00;101071.94;5103055;27;45676;-76
2023/05/09 06:39:01;;;;;;;;;3.00;1.33;;;;;19.00;100.00;101059.56;5103312;27;45389;-81
2023/05/09 06:41:26;;;;;;;;;1.00;1.00;;;;;19.05;100.00;101079.41;5103381;27;45298;-75
2023/05/09 06:43:52;;;;;;;;;0.33;0.33;;;;;18.98;100.00;101053.59;5103404;27;45290;-76
2023/05/09 06:46:17;;;;;;;;;0.00;0.00;;;;;18.94;100.00;101047.81;5103268;27;45223;-76
2023/05/09 06:48:43;;;;;;;;;1.00;1.00;;;;;18.93;100.00;101059.66;5103280;27;46275;-76
2023/05/09 06:51:08;;;;;;;;;1.00;1.00;;;;;18.98;100.00;101049.03;5084543;27;45613;-74
2023/05/09 06:53:34;;;;;;;;;0.67;0.67;;;;;18.94;100.00;101045.13;5084773;27;48087;-76
2023/05/09 06:55:59;;;;;;;;;0.33;0.33;;;;;18.92;100.00;101044.53;5103217;27;45756;-74
2023/05/09 06:58:26;;;;;;;;;0.00;0.00;;;;;18.84;100.00;101031.34;5103224;27;46095;-75
2023/05/09 07:00:52;;;;;;;;;0.33;0.33;;;;;18.86;100.00;101048.94;5084704;27;45390;-76
2023/05/09 07:03:17;;;;;;;;;1.00;1.00;;;;;18.79;100.00;101038.25;5102431;27;45338;-76
2023/05/09 07:05:42;;;;;;;;;0.33;0.00;;;;;18.72;100.00;101024.03;5100548;27;45311;-75
2023/05/09 07:08:08;;;;;;;;;0.00;0.00;;;;;18.73;100.00;101033.75;5102280;27;57785;-75
2023/05/09 07:10:33;;;;;;;;;0.00;0.00;;;;;18.70;100.00;101017.22;5084679;27;45409;-75
2023/05/09 07:12:59;;;;;;;;;0.00;0.00;;;;;18.73;100.00;101022.97;5084457;27;45404;-76
2023/05/09 07:15:24;;;;;;;;;0.00;0.00;;;;;18.62;100.00;101008.38;5102952;27;45561;-75
2023/05/09 07:17:49;;;;;;;;;1.00;1.00;;;;;18.66;100.00;101025.75;5100251;27;45637;-76
2023/05/09 07:20:15;;;;;;;;;1.00;0.00;;;;;18.55;100.00;101008.44;5102622;27;45337;-75
2023/05/09 07:22:40;;;;;;;;;0.00;0.00;;;;;18.55;100.00;101005.75;5084294;27;45665;-75
2023/05/09 07:25:07;;;;;;;;;0.00;0.00;;;;;18.51;100.00;101001.84;5102676;27;45473;-75
2023/05/09 07:27:33;;;;;;;;;1.00;0.00;;;;;18.58;100.00;101011.75;5102753;27;45664;-75
2023/05/09 07:29:58;;;;;;;;;1.33;1.33;;;;;18.55;100.00;100986.91;5084160;27;45221;-75
2023/05/09 07:32:24;;;;;;;;;0.00;0.00;;;;;18.55;100.00;100989.59;5102759;27;45478;-75
2023/05/09 07:34:49;;;;;;;;;1.67;1.67;;;;;18.56;100.00;100979.66;5102422;27;45328;-75
2023/05/09 07:37:14;;;;;;;;;1.00;1.00;;;;;18.53;100.00;100983.59;5102274;27;45316;-76
2023/05/09 07:39:40;;;;;;;;;1.67;1.00;;;;;18.48;100.00;100986.16;5102377;27;45286;-77
2023/05/09 07:42:05;;;;;;;;;0.00;0.00;;;;;18.46;100.00;100987.44;5083353;27;45445;-75
2023/05/09 07:44:31;;;;;;;;;0.00;0.00;;;;;18.50;100.00;100985.94;5102356;27;45445;-75
2023/05/09 07:46:58;;;;;;;;;1.00;0.00;;;;;18.55;100.00;100980.69;5102374;27;45446;-75
2023/05/09 07:49:24;;;;;;;;;1.00;1.00;;;;;18.62;100.00;100976.06;5102353;27;45416;-75
2023/05/09 07:51:49;;;;;;;;;1.00;1.00;;;;;18.62;100.00;100969.88;5102214;27;45264;-74
2023/05/09 07:54:14;;;;;;;;;1.00;1.00;;;;;18.62;100.00;100975.25;5102240;27;45345;-73
2023/05/09 07:56:40;;;;;;;;;0.00;0.00;;;;;18.62;100.00;100959.13;5101852;27;53451;-73
2023/05/09 07:59:05;;;;;;;;;0.00;0.00;;;;;18.68;100.00;100964.41;5083437;27;56761;-74
2023/05/09 08:01:30;;;;;;;;;0.00;0.00;;;;;18.72;100.00;100959.41;5102020;27;46727;-74
2023/05/09 08:03:55;;;;;;;;;0.00;0.00;;;;;18.78;100.00;100968.47;5102252;27;45211;-75
2023/05/09 08:06:21;;;;;;;;;0.00;0.00;;;;;18.82;100.00;100966.16;5101775;27;45290;-74
2023/05/09 08:08:46;;;;;;;;;2.00;2.00;;;;;18.86;100.00;100959.28;5083588;27;45289;-74
2023/05/09 08:11:11;;;;;;;;;1.67;0.33;;;;;18.79;100.00;100937.78;5083695;27;45248;-77
2023/05/09 08:13:37;;;;;;;;;1.00;0.00;;;;;18.86;100.00;100954.69;5101866;27;49795;-76
2023/05/09 08:16:02;;;;;;;;;2.00;0.33;;;;;18.89;100.00;100953.44;5099695;27;45227;-75
2023/05/09 08:18:28;;;;;;;;;0.00;0.00;;;;;18.92;100.00;100956.47;5081225;27;45245;-74
2023/05/09 08:20:53;;;;;;;;;0.00;0.00;;;;;18.92;100.00;100958.38;5101687;27;45283;-74
2023/05/09 08:23:18;;;;;;;;;2.00;0.67;;;;;18.89;100.00;100939.97;5099599;27;45604;-75
2023/05/09 08:25:44;;;;;;;;;0.33;0.00;;;;;18.99;100.00;100948.34;5100831;27;45287;-75
2023/05/09 08:28:09;;;;;;;;;1.00;1.00;;;;;19.05;100.00;100942.06;5101709;27;45315;-75
2023/05/09 08:30:35;;;;;;;;;0.33;0.33;;;;;19.05;100.00;100938.53;5083195;27;45237;-75
2023/05/09 08:33:00;;;;;;;;;1.67;1.67;;;;;19.04;100.00;100921.53;5101448;27;45490;-76
2023/05/09 08:35:25;;;;;;;;;2.00;0.67;;;;;19.12;100.00;100941.16;5082665;27;47134;-75
2023/05/09 08:37:51;;;;;;;;;0.00;0.00;;;;;19.15;100.00;100929.94;5101305;27;45400;-75
2023/05/09 08:40:16;;;;;;;;;0.00;0.00;;;;;19.17;100.00;100923.28;5101528;27;45299;-75
2023/05/09 08:42:44;;;;;;;;;1.67;1.00;;;;;19.23;100.00;100926.09;5101225;27;45334;-74
2023/05/09 08:45:13;;;;;;;;;3.00;1.00;;;;;19.23;100.00;100918.03;5101032;27;45748;-77
2023/05/09 08:47:39;;;;;;;;;2.00;1.00;;;;;19.27;100.00;100920.03;5099636;27;45306;-74
2023/05/09 08:50:05;;;;;;;;;2.00;2.00;;;;;19.31;100.00;100923.09;5080602;27;45334;-75
2023/05/09 08:52:34;;;;;;;;;2.00;1.00;;;;;19.40;100.00;100920.91;5100358;27;45496;-74
2023/05/09 08:55:01;;;;;;;;;1.33;1.33;;;;;19.40;100.00;100915.53;5100847;27;45464;-75
2023/05/09 08:57:27;;;;;;;;;1.00;1.00;;;;;19.46;100.00;100916.47;5101203;27;45300;-74
2023/05/09 08:59:53;;;;;;;;;1.00;1.00;;;;;19.50;100.00;100901.47;5082825;27;45272;-75
2023/05/09 09:02:19;;;;;;;;;2.33;0.00;;;;;19.54;100.00;100891.88;5101040;27;45488;-75
2023/05/09 09:04:44;;;;;;;;;2.00;2.00;;;;;19.51;100.00;100882.38;5100980;27;46452;-75
2023/05/09 09:07:11;;;;;;;;;2.67;2.67;;;;;19.57;100.00;100879.81;5100824;27;45204;-74
2023/05/09 09:09:43;;;;;;;;;1.67;1.67;;;;;19.57;100.00;100877.13;5101269;27;45315;-75
2023/05/09 09:12:08;;;;;;;;;3.00;1.00;;;;;19.63;100.00;100887.78;5082369;27;46631;-74
2023/05/09 09:14:38;;;;;;;;;3.67;2.00;;;;;19.64;100.00;100884.03;5082445;27;47064;-74
2023/05/09 09:17:05;;;;;;;;;3.00;3.00;;;;;19.72;100.00;100887.47;5101124;27;45397;-73
2023/05/09 09:19:32;;;;;;;;;1.00;1.00;;;;;19.70;100.00;100871.53;5101508;27;45274;-74
2023/05/09 09:22:01;;;;;;;;;3.00;3.00;;;;;19.71;100.00;100870.47;5100562;27;45524;-73
2023/05/09 09:24:27;;;;;;;;;4.33;2.33;;;;;19.73;100.00;100875.63;5100873;27;46238;-73
2023/05/09 09:26:52;;;;;;;;;3.00;2.33;;;;;19.68;100.00;100869.06;5082480;27;45436;-73
2023/05/09 09:29:19;;;;;;;;;2.67;2.67;;;;;19.71;100.00;100873.16;5081467;27;45397;-74
2023/05/09 09:31:46;;;;;;;;;2.00;2.00;;;;;19.70;100.00;100874.22;5097942;27;45342;-74
2023/05/09 09:34:17;;;;;;;;;3.00;3.00;;;;;19.65;100.00;100864.13;5081532;27;48239;-74
2023/05/09 09:36:43;;;;;;;;;3.33;3.33;;;;;19.61;100.00;100862.97;5100080;27;45480;-74
2023/05/09 09:39:12;;;;;;;;;3.33;2.00;;;;;19.69;100.00;100864.47;5100450;27;45364;-74
2023/05/09 09:41:39;;;;;;;;;4.00;4.00;;;;;19.68;100.00;100860.16;5082212;27;46415;-73
2023/05/09 09:44:15;;;;;;;;;4.00;2.67;;;;;19.69;100.00;100845.59;5100400;27;46483;-73
2023/05/09 09:46:49;;;;;;;;;2.00;2.00;;;;;19.74;100.00;100861.91;5100541;27;45335;-73
2023/05/09 09:49:19;;;;;;;;;4.00;2.33;;;;;19.73;100.00;100854.88;5101096;27;45212;-75
2023/05/09 09:51:50;;;;;;;;;3.00;3.00;;;;;19.68;100.00;100852.06;5082136;27;46258;-75
2023/05/09 09:54:15;;;;;;;;;1.33;1.00;;;;;19.69;100.00;100853.69;5082074;27;48472;-74
2023/05/09 09:56:53;;;;;;;;;3.67;3.00;;;;;19.72;100.00;100847.03;5100294;27;45303;-74
2023/05/09 09:59:21;;;;;;;;;1.00;1.00;;;;;19.72;100.00;100852.44;5101171;27;45364;-74
2023/05/09 10:02:08;;;;;;;;;3.33;3.00;;;;;19.71;100.00;100850.75;5100241;27;45247;-74
2023/05/09 10:04:40;;;;;;;;;4.00;3.00;;;;;19.74;100.00;100844.91;5099125;27;46114;-75
2023/05/09 10:07:09;;;;;;;;;2.67;2.67;;;;;19.74;100.00;100843.03;5100175;27;45412;-76
2023/05/09 10:09:38;;;;;;;;;3.00;3.00;;;;;19.75;100.00;100841.19;5082094;27;45625;-75
2023/05/09 10:12:06;;;;;;;;;2.00;2.00;;;;;19.71;100.00;100837.28;5100210;27;45391;-75
2023/05/09 10:14:33;;;;;;;;;2.00;2.00;;;;;19.68;100.00;100834.00;5100002;27;47510;-75
2023/05/09 10:17:00;;;;;;;;;2.00;2.00;;;;;19.76;100.00;100832.84;5100396;27;45291;-75
2023/05/09 10:19:28;;;;;;;;;4.67;3.00;;;;;19.81;100.00;100829.44;5083391;27;45347;-76
2023/05/09 10:22:02;;;;;;;;;2.67;2.67;;;;;19.81;100.00;100834.81;5082185;27;45491;-76
2023/05/09 10:24:41;;;;;;;;;3.67;3.67;;;;;19.76;100.00;100821.25;5103318;27;45310;-77
2023/05/09 10:27:10;;;;;;;;;3.00;3.00;;;;;19.79;100.00;100820.78;5082254;27;45233;-75
2023/05/09 10:29:50;;;;;;;;;2.00;2.00;;;;;19.86;100.00;100817.94;5100010;27;45528;-76
2023/05/09 10:32:37;;;;;;;;;3.00;3.00;;;;;19.88;100.00;100815.84;5081331;27;47256;-76
2023/05/09 10:35:09;;;;;;;;;3.33;3.33;;;;;19.87;100.00;100812.31;5099962;27;46365;-76
2023/05/09 10:37:36;;;;;;;;;4.00;3.00;;;;;19.87;100.00;100806.13;5102420;27;45377;-75
2023/05/09 10:40:03;;;;;;;;;3.00;3.00;;;;;19.85;100.00;100803.66;5094755;27;45318;-75
2023/05/09 10:42:30;;;;;;;;;4.33;4.33;;;;;19.85;100.00;100808.22;5081454;27;46285;-75
2023/05/09 10:44:56;;;;;;;;;2.67;2.67;;;;;19.87;100.00;100806.13;5099867;27;45518;-75
2023/05/09 10:47:25;;;;;;;;;3.00;3.00;;;;;19.81;100.00;100797.91;5100211;27;45374;-75
2023/05/09 10:49:51;;;;;;;;;4.00;4.00;;;;;19.83;100.00;100799.53;5099457;27;45233;-75
2023/05/09 10:52:17;;;;;;;;;4.33;4.00;;;;;19.86;100.00;100807.16;5105491;27;45119;-77
2023/05/09 10:54:43;;;;;;;;;3.00;3.00;;;;;19.78;100.00;100789.44;5086529;27;46581;-76
2023/05/09 10:57:08;;;;;;;;;2.00;2.00;;;;;19.85;100.00;100786.66;5105002;27;45265;-76
2023/05/09 10:59:40;;;;;;;;;3.67;3.67;;;;;19.91;100.00;100788.41;5100152;27;45270;-77
2023/05/09 11:02:17;;;;;;;;;2.67;2.67;;;;;20.04;100.00;100796.28;5100556;27;45609;-74
2023/05/09 11:04:44;;;;;;;;;5.33;3.67;;;;;20.03;100.00;100789.22;5099369;27;46542;-76
2023/05/09 11:07:25;;;;;;;;;3.00;3.00;;;;;20.06;100.00;100782.56;5099154;27;45291;-75
2023/05/09 11:10:06;;;;;;;;;2.67;2.67;;;;;20.06;100.00;100782.56;5099797;27;45430;-75
2023/05/09 11:12:31;;;;;;;;;2.00;2.00;;;;;20.00;100.00;100762.72;5081000;27;47122;-75
2023/05/09 11:15:05;;;;;;;;;2.33;2.33;;;;;20.14;100.00;100771.38;5099427;27;45349;-76
2023/05/09 11:17:31;;;;;;;;;3.00;3.00;;;;;20.19;100.00;100776.06;5101625;27;45432;-75